• pl
  • eng

Awiacja
Komunikaty METAR z lotnisk wojskowych. 09:01 22.08.2017

METAR EPBC 220700Z NIL=

METAR EPCE 220700Z 24006KT 210V270 9999 VCTS -SHRA FEW030CB OVC073
12/12 Q1015 RMK 124 095 8/2 =

METAR EPDA 220700Z 31010KT 280V340 9999 VCTS SCT015CB BKN050 17/14
Q1015 RETS RMK 169 083 5/3 =

METAR EPDE 220700Z 25008KT 9999 SCT014 BKN022 15/12 Q1017 RMK 147 081
7/3=

METAR EPIR 220700Z 26012KT 9999 SCT007 BKN014 14/13 Q1017 RMK 140 095
7/3 =

METAR EPKS 220700Z 26012KT 9999 BKN011 14/11 Q1019 RMK 137 082 6/6=

METAR EPLK 220700Z 26010KT 9999 BKN008 BKN011 13/11 Q1018 RMK 128 091
7/5=

METAR EPLY 220700Z 28008KT 9999 SCT008 BKN010 14/12 Q1018 RMK 138 088
7/4=

METAR EPMB 220700Z 27008KT 8000 SCT005 BKN100 14/14 Q1015 RMK 141 097
6/4=

METAR EPMI 220700Z 28006KT 9999 SCT012 BKN060 14/11 Q1018 RMK 137 085
7/4=

METAR EPMM 220700Z 26008KT 9999 SCT012 BKN020 15/12 Q1017 RMK 150 084
7/4=

METAR EPNA 220700Z 25008KT 9999 BKN009 BKN014 14/13 Q1017 RMK 136 094
7/5=

METAR EPOK 220700Z 26006KT 9999 VCTS FEW027CB SCT/// 17/14
Q1015 RMK 167 083 4/2 =

METAR EPPR 220700Z 29004KT 9999 SCT016 BKN200 17/13 Q1015 RMK 168 079
5/3=

METAR EPPW 220700Z 27012KT 9999 BKN008 BKN050 14/12 Q1018 RMK 138 088
7/5=

METAR EPSN 220700Z 28008KT 9999 SCT010 BKN040 14/13 Q1017 RMK 136 093
7/4=

METAR EPTM 220700Z 29006KT 9999 BKN025 14/12 Q1018 RMK 139 088 7/7=
Awiacja.imgw.pl jest pogodowym serwisem informacyjnym
Instytutu Meteorologii i Gospodarki Wodnej Państwowego Instytutu Badawczego.
Copyright IMGW PIB 2009-2011© Wszelkie prawa zastrzeżone.